KGPT/GPT METAR and TAF weather

Enter ICAO airport designator
Station Type Date Time Source
KGPT METAR 2020/11/28 19:53 UTC NOAA

KGPT 281953Z 02006KT 10SM BKN014 BKN050 19/15 A3005 RMK AO2 SLP176 T01890150


Station Type Date Time Source
KGPT Decoded METAR 2020/11/28 19:53 UTC NOAA

GULFPORT-BILOXI REG AIRPORT , MS, United States (KGPT) 30-25N 089-05W 14M
Nov 28, 2020 - 02:53 PM EST / 2020.11.28 1953 UTC
Wind: from the NNE (020 degrees) at 7 MPH (6 KT):0
Visibility: 10 mile(s):0
Sky conditions: mostly cloudy
Temperature: 66.0 F (18.9 C)
Dew Point: 59.0 F (15.0 C)
Relative Humidity: 78%
Pressure (altimeter): 30.05 in. Hg (1017 hPa)
ob: KGPT 281953Z 02006KT 10SM BKN014 BKN050 19/15 A3005 RMK AO2 SLP176 T01890150
cycle: 20

Station Type Date Time Source
KGPT TAF 2020/11/28 18:36 UTC NOAA

TAF KGPT 281734Z 2818/2918 02006KT P6SM BKN013 OVC130
FM290200 04005KT P6SM -RA BKN110
FM291000 05005KT P6SM -SHRA OVC035
FM291100 06005KT P6SM -SHRA OVC008
FM291400 11010G20KT 4SM SHRA BR OVC003

Example: see airport list